createdAt,value
2022-12-16T00:02:31.705Z,97128.2
2022-12-16T00:08:08.606Z,97127.2
2022-12-16T00:13:43.611Z,97125.9
2022-12-16T00:19:18.669Z,97121.4
2022-12-16T00:24:55.616Z,97126.1
2022-12-16T00:30:30.749Z,97132.7
2022-12-16T00:36:05.570Z,97128.6
2022-12-16T00:41:40.439Z,97127.9
2022-12-16T00:47:44.394Z,97132
2022-12-16T00:53:16.976Z,97130.3
2022-12-16T00:58:52.218Z,97134.3
2022-12-16T01:04:29.375Z,97127.1
2022-12-16T01:10:04.748Z,97121
2022-12-16T01:15:41.157Z,97120.4
2022-12-16T01:21:16.785Z,97121.5
2022-12-16T01:26:52.690Z,97121.1
2022-12-16T01:32:28.582Z,97124.6
2022-12-16T01:38:06.683Z,97132.6
2022-12-16T01:43:43.372Z,97133.6
2022-12-16T01:49:40.367Z,97134.4
2022-12-16T01:55:13.173Z,97133.4
2022-12-16T02:00:48.333Z,97137.7
2022-12-16T02:06:24.756Z,97135.4
2022-12-16T02:11:59.542Z,97137.7
2022-12-16T02:17:34.159Z,97143.2
2022-12-16T02:23:09.597Z,97146.5
2022-12-16T02:28:44.743Z,97140.2
2022-12-16T02:34:19.749Z,97138.1
2022-12-16T02:39:55.583Z,97145.5
2022-12-16T02:45:30.928Z,97142.4
2022-12-16T02:51:06.440Z,97143.4
2022-12-16T02:56:41.812Z,97138.8
2022-12-16T03:02:17.995Z,97138.6
2022-12-16T03:07:54.784Z,97138.5
2022-12-16T03:13:31.672Z,97137.7
2022-12-16T03:19:10.225Z,97137.2
2022-12-16T03:24:46.495Z,97134.3
2022-12-16T03:30:22.166Z,97135.8
2022-12-16T03:35:57.300Z,97131.9
2022-12-16T03:41:33.387Z,97130.1
2022-12-16T03:47:38.733Z,97131.5
2022-12-16T03:53:11.969Z,97131.8
2022-12-16T03:58:47.338Z,97140.5
2022-12-16T04:04:22.680Z,97141.3
2022-12-16T04:09:58.393Z,97142
2022-12-16T04:15:34.836Z,97141.2
2022-12-16T04:21:11.615Z,97136.3
2022-12-16T04:26:46.520Z,97134.9
2022-12-16T04:32:22.419Z,97135.3
2022-12-16T04:37:57.823Z,97136.2
2022-12-16T04:43:35.263Z,97140.5
2022-12-16T04:49:33.042Z,97154.7
2022-12-16T04:55:06.310Z,97156.6
2022-12-16T05:00:41.867Z,97167.1
2022-12-16T05:06:17.216Z,97174.2
2022-12-16T05:11:52.391Z,97175.6
2022-12-16T05:17:28.871Z,97184.2
2022-12-16T05:23:03.565Z,97186.3
2022-12-16T05:28:38.364Z,97192.1
2022-12-16T05:34:13.428Z,97204.1
2022-12-16T05:39:48.756Z,97204.6
2022-12-16T05:45:23.535Z,97213.2
2022-12-16T05:50:59.684Z,97216.1
2022-12-16T05:56:34.602Z,97223.3
2022-12-16T06:02:10.967Z,97222.4
2022-12-16T06:07:47.700Z,97232.9
2022-12-16T06:13:22.827Z,97239.6
2022-12-16T06:19:18.802Z,97241.7
2022-12-16T06:25:02.142Z,97249.3
2022-12-16T06:30:37.254Z,97256.5
2022-12-16T06:36:12.601Z,97261
2022-12-16T06:41:48.421Z,97269.5
2022-12-16T06:47:45.275Z,97279.7
2022-12-16T06:53:17.887Z,97284.6
2022-12-16T06:58:53.084Z,97290.1
2022-12-16T07:04:28.338Z,97293.7
2022-12-16T07:10:03.932Z,97300.1
2022-12-16T07:15:39.838Z,97313.6
2022-12-16T07:21:14.851Z,97319.2
2022-12-16T07:26:50.559Z,97326.7
2022-12-16T07:32:25.974Z,97341.1
2022-12-16T07:38:01.093Z,97347.2
2022-12-16T07:43:37.679Z,97359.5
2022-12-16T07:49:15.270Z,97367.5
2022-12-16T07:54:51.534Z,97371.1
2022-12-16T08:00:30.717Z,97382.8
2022-12-16T08:06:06.678Z,97391.9
2022-12-16T08:11:42.342Z,97401
2022-12-16T08:17:19.181Z,97407.1
2022-12-16T08:22:57.728Z,97417.8
2022-12-16T08:28:32.586Z,97424
2022-12-16T08:34:08.798Z,97435.5
2022-12-16T08:39:51.283Z,97450.2
2022-12-16T08:46:14.178Z,97465.2
2022-12-16T08:51:51.667Z,97471.7
2022-12-16T08:57:27.697Z,97482.4
2022-12-16T09:03:10.581Z,97494.4
2022-12-16T09:08:48.321Z,97513.1
2022-12-16T09:14:24.155Z,97521.5
2022-12-16T09:20:21.054Z,97536.9
2022-12-16T09:25:56.944Z,97559
2022-12-16T09:31:33.283Z,97575.2
2022-12-16T09:37:09.481Z,97583.9
2022-12-16T09:42:45.164Z,97594.9
2022-12-16T09:48:21.604Z,97609.5
2022-12-16T09:53:57.387Z,97617.5
2022-12-16T09:59:32.438Z,97620
2022-12-16T10:05:09.244Z,97629.6
2022-12-16T10:10:44.096Z,97630.8
2022-12-16T10:16:21.354Z,97639.2
2022-12-16T10:21:57.822Z,97638.3
2022-12-16T10:27:33.124Z,97648.6
2022-12-16T10:33:09.235Z,97648.1
2022-12-16T10:38:44.960Z,97657.3
2022-12-16T10:44:20.220Z,97668
2022-12-16T10:49:57.184Z,97676.6
2022-12-16T10:55:33.097Z,97687.2
2022-12-16T11:01:08.526Z,97690.4
2022-12-16T11:06:44.743Z,97690.7
2022-12-16T11:12:20.531Z,97700.7
2022-12-16T11:17:56.789Z,97700.7
2022-12-16T11:23:34.261Z,97704.9
2022-12-16T11:29:12.075Z,97713.5
2022-12-16T11:34:47.312Z,97710.3
2022-12-16T11:40:22.638Z,97721.6
2022-12-16T11:45:58.996Z,97727.9
2022-12-16T11:51:35.423Z,97740.2
2022-12-16T11:57:10.765Z,97743
2022-12-16T12:02:46.880Z,97746.2
2022-12-16T12:08:23.352Z,97752.8
2022-12-16T12:13:58.580Z,97756.8
2022-12-16T12:19:44.568Z,97761.9
2022-12-16T12:25:20.153Z,97766.1
2022-12-16T12:30:56.041Z,97768.3
2022-12-16T12:36:38.660Z,97772.8
2022-12-16T12:42:14.144Z,97772.2
2022-12-16T12:47:49.308Z,97775.6
2022-12-16T12:53:34.671Z,97785
2022-12-16T12:59:15.468Z,97788.9
2022-12-16T13:04:52.004Z,97792.8
2022-12-16T13:10:31.182Z,97802.9
2022-12-16T13:16:07.558Z,97813
2022-12-16T13:21:45.227Z,97813.2
2022-12-16T13:27:20.603Z,97821.9
2022-12-16T13:32:55.483Z,97827.6
2022-12-16T13:38:31.473Z,97836.7
2022-12-16T13:44:06.562Z,97839.5
2022-12-16T13:49:42.019Z,97842.3
2022-12-16T13:55:25.639Z,97854.1
2022-12-16T14:01:02.364Z,97864.6
2022-12-16T14:06:41.065Z,97875.1
2022-12-16T14:12:34.593Z,97885.6
2022-12-16T14:18:18.835Z,97898.6
2022-12-16T14:24:31.325Z,97897.6
2022-12-16T14:30:50.028Z,97910.5
2022-12-16T14:36:26.632Z,97918.9
2022-12-16T14:42:02.517Z,97928.1
2022-12-16T14:47:46.392Z,97935.5
2022-12-16T14:53:21.682Z,97940.9
2022-12-16T14:58:57.106Z,97943.9
2022-12-16T15:04:33.103Z,97952.5
2022-12-16T15:10:09.953Z,97962.7
2022-12-16T15:15:45.562Z,97972.4
2022-12-16T15:21:21.975Z,97984.1
2022-12-16T15:26:57.688Z,97992.8
2022-12-16T15:33:00.835Z,98004
2022-12-16T15:38:43.446Z,98010.5
2022-12-16T15:44:21.306Z,98014.8
2022-12-16T15:50:05.181Z,98026.3
2022-12-16T15:55:40.983Z,98033.8
2022-12-16T16:01:16.505Z,98040.3
2022-12-16T16:06:52.094Z,98047.7
2022-12-16T16:12:27.375Z,98058.1
2022-12-16T16:18:05.227Z,98066
2022-12-16T16:23:40.817Z,98078.1
2022-12-16T16:30:00.983Z,98089.8
2022-12-16T16:35:43.167Z,98095.3
2022-12-16T16:41:18.481Z,98102.6
2022-12-16T16:47:15.452Z,98107.6
2022-12-16T16:52:49.047Z,98118.3
2022-12-16T16:58:23.909Z,98127.6
2022-12-16T17:04:03.194Z,98133.7
2022-12-16T17:09:44.115Z,98147.1
2022-12-16T17:15:19.366Z,98155.9
2022-12-16T17:20:54.208Z,98165.8
2022-12-16T17:26:33.224Z,98170.5
2022-12-16T17:32:09.600Z,98176
2022-12-16T17:37:53.181Z,98185.5
2022-12-16T17:43:29.363Z,98195.9
2022-12-16T17:49:30.228Z,98203.5
2022-12-16T17:55:03.256Z,98209.1
2022-12-16T18:00:38.784Z,98215.7
2022-12-16T18:06:13.934Z,98220.1
2022-12-16T18:11:49.226Z,98222.9
2022-12-16T18:17:46.488Z,98236.9
2022-12-16T18:23:22.701Z,98242.3
2022-12-16T18:28:57.606Z,98254.3
2022-12-16T18:34:41.698Z,98262.7
2022-12-16T18:40:17.635Z,98269.8
2022-12-16T18:45:54.780Z,98273.5
2022-12-16T18:51:31.077Z,98277.1
2022-12-16T18:57:06.453Z,98290.1
2022-12-16T19:02:42.439Z,98294.2
2022-12-16T19:08:19.182Z,98304.4
2022-12-16T19:13:54.240Z,98309.1
2022-12-16T19:19:29.404Z,98314
2022-12-16T19:25:04.678Z,98319.5
2022-12-16T19:30:41.277Z,98328.4
2022-12-16T19:36:16.749Z,98334.2
2022-12-16T19:41:56.753Z,98339.6
2022-12-16T19:47:32.386Z,98345
2022-12-16T19:53:09.859Z,98349.1
2022-12-16T19:58:45.479Z,98349.7
2022-12-16T20:04:20.664Z,98358.2
2022-12-16T20:09:56.761Z,98363.4
2022-12-16T20:15:32.610Z,98369.6
2022-12-16T20:21:07.703Z,98372.5
2022-12-16T20:26:44.489Z,98373.6
2022-12-16T20:32:19.572Z,98373.9
2022-12-16T20:37:56.827Z,98383.2
2022-12-16T20:43:31.775Z,98385
2022-12-16T20:49:07.569Z,98389.3
2022-12-16T20:54:44.584Z,98396.7
2022-12-16T21:00:23.586Z,98400.9
2022-12-16T21:06:12.892Z,98403.3
2022-12-16T21:11:57.092Z,98410.4
2022-12-16T21:17:32.305Z,98410.3
2022-12-16T21:23:09.882Z,98414.8
2022-12-16T21:28:45.221Z,98417.8
2022-12-16T21:34:20.827Z,98416.8
2022-12-16T21:39:56.896Z,98420.2
2022-12-16T21:45:32.369Z,98425
2022-12-16T21:51:07.545Z,98433.9
2022-12-16T21:56:42.956Z,98438.7
2022-12-16T22:02:18.314Z,98441.7
2022-12-16T22:07:56.604Z,98447.4
2022-12-16T22:13:31.840Z,98455.8
2022-12-16T22:19:07.140Z,98463.5
2022-12-16T22:24:42.425Z,98472.3
2022-12-16T22:30:18.245Z,98478.9
2022-12-16T22:35:56.050Z,98490.8
2022-12-16T22:41:31.373Z,98497.1
2022-12-16T22:47:29.151Z,98499
2022-12-16T22:53:03.257Z,98500.6
2022-12-16T22:58:39.572Z,98503.4
2022-12-16T23:04:15.357Z,98501.5
2022-12-16T23:09:53.552Z,98507
2022-12-16T23:15:31.634Z,98504.4
2022-12-16T23:21:07.866Z,98497.3
2022-12-16T23:26:45.658Z,98489.3
2022-12-16T23:32:20.588Z,98489.6
2022-12-16T23:37:56.587Z,98488.4
2022-12-16T23:43:32.402Z,98477
2022-12-16T23:49:29.506Z,98464.7
2022-12-16T23:55:02.101Z,98462.2
